createdAt,value
2023-03-07T00:01:08.708Z,97595.00
2023-03-07T00:03:39.644Z,97592.00
2023-03-07T00:06:11.585Z,97597.00
2023-03-07T00:08:42.445Z,97597.00
2023-03-07T00:11:13.382Z,97599.00
2023-03-07T00:13:44.368Z,97605.00
2023-03-07T00:16:19.025Z,97597.00
2023-03-07T00:18:50.335Z,97595.00
2023-03-07T00:21:23.056Z,97593.00
2023-03-07T00:23:54.097Z,97610.00
2023-03-07T00:26:26.973Z,97586.00
2023-03-07T00:28:57.846Z,97594.00
2023-03-07T00:31:28.880Z,97588.00
2023-03-07T00:33:59.843Z,97581.00
2023-03-07T00:36:31.272Z,97587.00
2023-03-07T00:39:02.171Z,97595.00
2023-03-07T00:41:33.094Z,97586.00
2023-03-07T00:44:04.359Z,97591.00
2023-03-07T00:46:35.320Z,97596.00
2023-03-07T00:49:06.195Z,97571.00
2023-03-07T00:51:37.549Z,97559.00
2023-03-07T00:54:08.464Z,97554.00
2023-03-07T00:56:39.459Z,97556.00
2023-03-07T00:59:11.219Z,97553.00
2023-03-07T01:01:42.365Z,97556.00
2023-03-07T01:04:13.331Z,97555.00
2023-03-07T01:06:44.328Z,97551.00
2023-03-07T01:09:15.288Z,97544.00
2023-03-07T01:11:46.264Z,97549.00
2023-03-07T01:14:17.234Z,97541.00
2023-03-07T01:16:48.214Z,97544.00
2023-03-07T01:19:19.311Z,97549.00
2023-03-07T01:21:50.643Z,97551.00
2023-03-07T01:24:21.543Z,97552.00
2023-03-07T01:26:52.458Z,97547.00
2023-03-07T01:29:23.596Z,97539.00
2023-03-07T01:31:54.764Z,97542.00
2023-03-07T01:34:25.687Z,97546.00
2023-03-07T01:36:56.561Z,97542.00
2023-03-07T01:39:27.593Z,97533.00
2023-03-07T01:41:58.546Z,97537.00
2023-03-07T01:44:30.020Z,97532.00
2023-03-07T01:47:01.161Z,97533.00
2023-03-07T01:49:37.626Z,97528.00
2023-03-07T01:52:34.824Z,97533.00
2023-03-07T01:55:19.360Z,97526.00
2023-03-07T01:57:52.226Z,97521.00
2023-03-07T02:00:28.890Z,97518.00
2023-03-07T02:03:11.923Z,97516.00
2023-03-07T02:05:55.991Z,97511.00
2023-03-07T02:08:29.806Z,97499.00
2023-03-07T02:11:01.222Z,97510.00
2023-03-07T02:13:32.795Z,97509.00
2023-03-07T02:16:05.025Z,97496.00
2023-03-07T02:18:43.199Z,97501.00
2023-03-07T02:21:34.244Z,97526.00
2023-03-07T02:24:41.124Z,97504.00
2023-03-07T02:27:12.806Z,97514.00
2023-03-07T02:29:43.743Z,97505.00
2023-03-07T02:32:14.854Z,97496.00
2023-03-07T02:34:46.009Z,97496.00
2023-03-07T02:37:27.281Z,97515.00
2023-03-07T02:40:06.071Z,97491.00
2023-03-07T02:42:40.995Z,97489.00
2023-03-07T02:45:16.352Z,97483.00
2023-03-07T02:47:47.386Z,97477.00
2023-03-07T02:50:18.441Z,97479.00
2023-03-07T02:52:50.002Z,97475.00
2023-03-07T02:55:21.367Z,97468.00
2023-03-07T02:57:53.724Z,97466.00
2023-03-07T03:00:24.745Z,97459.00
2023-03-07T03:02:55.712Z,97458.00
2023-03-07T03:05:26.755Z,97455.00
2023-03-07T03:07:57.699Z,97460.00
2023-03-07T03:10:28.541Z,97462.00
2023-03-07T03:12:59.438Z,97457.00
2023-03-07T03:15:30.376Z,97461.00
2023-03-07T03:18:01.675Z,97456.00
2023-03-07T03:20:32.630Z,97463.00
2023-03-07T03:23:04.567Z,97459.00
2023-03-07T03:25:35.830Z,97457.00
2023-03-07T03:28:06.850Z,97446.00
2023-03-07T03:30:37.882Z,97458.00
2023-03-07T03:33:08.714Z,97452.00
2023-03-07T03:35:40.127Z,97461.00
2023-03-07T03:38:11.020Z,97458.00
2023-03-07T03:40:41.872Z,97468.00
2023-03-07T03:43:12.750Z,97453.00
2023-03-07T03:45:43.896Z,97451.00
2023-03-07T03:48:14.770Z,97449.00
2023-03-07T03:50:45.622Z,97445.00
2023-03-07T03:53:16.930Z,97463.00
2023-03-07T03:55:47.797Z,97450.00
2023-03-07T03:58:18.638Z,97440.00
2023-03-07T04:00:49.526Z,97434.00
2023-03-07T04:03:21.058Z,97435.00
2023-03-07T04:05:51.927Z,97443.00
2023-03-07T04:08:22.802Z,97433.00
2023-03-07T04:10:53.670Z,97443.00
2023-03-07T04:13:25.419Z,97432.00
2023-03-07T04:15:56.714Z,97429.00
2023-03-07T04:18:27.776Z,97441.00
2023-03-07T04:20:58.687Z,97428.00
2023-03-07T04:23:29.809Z,97427.00
2023-03-07T04:26:03.374Z,97426.00
2023-03-07T04:28:45.062Z,97435.00
2023-03-07T04:31:19.615Z,97430.00
2023-03-07T04:33:51.866Z,97433.00
2023-03-07T04:36:24.141Z,97421.00
2023-03-07T04:38:54.990Z,97423.00
2023-03-07T04:41:29.023Z,97433.00
2023-03-07T04:43:59.919Z,97442.00
2023-03-07T04:46:30.819Z,97427.00
2023-03-07T04:49:01.732Z,97417.00
2023-03-07T04:51:32.790Z,97415.00
2023-03-07T04:54:03.737Z,97410.00
2023-03-07T04:56:34.640Z,97408.00
2023-03-07T04:59:05.492Z,97408.00
2023-03-07T05:01:36.492Z,97406.00
2023-03-07T05:04:07.590Z,97398.00
2023-03-07T05:06:38.529Z,97396.00
2023-03-07T05:09:09.428Z,97404.00
2023-03-07T05:11:40.322Z,97402.00
2023-03-07T05:14:11.235Z,97391.00
2023-03-07T05:16:42.164Z,97402.00
2023-03-07T05:19:13.433Z,97392.00
2023-03-07T05:21:44.698Z,97383.00
2023-03-07T05:24:15.988Z,97389.00
2023-03-07T05:26:46.907Z,97392.00
2023-03-07T05:29:17.821Z,97382.00
2023-03-07T05:31:48.827Z,97373.00
2023-03-07T05:34:19.780Z,97368.00
2023-03-07T05:36:50.763Z,97379.00
2023-03-07T05:39:21.723Z,97404.00
2023-03-07T05:41:52.615Z,97392.00
2023-03-07T05:44:23.573Z,97387.00
2023-03-07T05:46:54.443Z,97387.00
2023-03-07T05:49:25.528Z,97390.00
2023-03-07T05:51:56.425Z,97384.00
2023-03-07T05:54:27.454Z,97385.00
2023-03-07T05:56:58.413Z,97387.00
2023-03-07T05:59:29.354Z,97379.00
2023-03-07T06:02:00.233Z,97391.00
2023-03-07T06:04:31.147Z,97381.00
2023-03-07T06:07:02.088Z,97378.00
2023-03-07T06:09:33.001Z,97372.00
2023-03-07T06:12:04.312Z,97373.00
2023-03-07T06:14:35.345Z,97371.00
2023-03-07T06:17:06.372Z,97362.00
2023-03-07T06:19:37.268Z,97367.00
2023-03-07T06:22:08.890Z,97359.00
2023-03-07T06:24:39.965Z,97364.00
2023-03-07T06:27:10.827Z,97383.00
2023-03-07T06:29:41.804Z,97362.00
2023-03-07T06:32:12.735Z,97365.00
2023-03-07T06:34:43.685Z,97366.00
2023-03-07T06:37:14.694Z,97365.00
2023-03-07T06:39:45.602Z,97357.00
2023-03-07T06:42:16.722Z,97371.00
2023-03-07T06:44:47.594Z,97363.00
2023-03-07T06:47:18.808Z,97362.00
2023-03-07T06:49:49.783Z,97358.00
2023-03-07T06:52:20.645Z,97357.00
2023-03-07T06:54:51.547Z,97354.00
2023-03-07T06:57:22.469Z,97362.00
2023-03-07T06:59:53.317Z,97375.00
2023-03-07T07:02:24.380Z,97360.00
2023-03-07T07:04:55.366Z,97366.00
2023-03-07T07:07:26.749Z,97361.00
2023-03-07T07:09:57.894Z,97357.00
2023-03-07T07:12:28.775Z,97362.00
2023-03-07T07:15:02.260Z,97367.00
2023-03-07T07:17:38.900Z,97363.00
2023-03-07T07:20:11.604Z,97359.00
2023-03-07T07:22:42.641Z,97362.00
2023-03-07T07:25:14.562Z,97357.00
2023-03-07T07:27:45.415Z,97357.00
2023-03-07T07:30:16.522Z,97351.00
2023-03-07T07:32:48.212Z,97352.00
2023-03-07T07:35:19.424Z,97358.00
2023-03-07T07:37:50.320Z,97355.00
2023-03-07T07:40:21.368Z,97359.00
2023-03-07T07:42:55.086Z,97354.00
2023-03-07T07:45:26.070Z,97348.00
2023-03-07T07:47:57.049Z,97355.00
2023-03-07T07:50:27.993Z,97350.00
2023-03-07T07:52:58.933Z,97349.00
2023-03-07T07:55:29.839Z,97354.00
2023-03-07T07:58:00.686Z,97359.00
2023-03-07T08:00:32.350Z,97356.00
2023-03-07T08:03:03.410Z,97348.00
2023-03-07T08:05:34.318Z,97351.00
2023-03-07T08:08:05.334Z,97348.00
2023-03-07T08:10:36.435Z,97345.00
2023-03-07T08:13:07.891Z,97352.00
2023-03-07T08:15:39.191Z,97351.00
2023-03-07T08:18:10.951Z,97347.00
2023-03-07T08:20:41.892Z,97338.00
2023-03-07T08:23:13.018Z,97340.00
2023-03-07T08:25:44.249Z,97343.00
2023-03-07T08:28:15.113Z,97343.00
2023-03-07T08:30:46.080Z,97340.00
2023-03-07T08:33:17.051Z,97340.00
2023-03-07T08:35:48.001Z,97340.00
2023-03-07T08:38:19.156Z,97343.00
2023-03-07T08:40:50.064Z,97343.00
2023-03-07T08:43:20.919Z,97331.00
2023-03-07T08:45:52.964Z,97336.00
2023-03-07T08:48:24.728Z,97337.00
2023-03-07T08:50:56.496Z,97328.00
2023-03-07T08:53:27.359Z,97331.00
2023-03-07T08:55:58.272Z,97317.00
2023-03-07T08:58:29.140Z,97311.00
2023-03-07T09:01:00.302Z,97316.00
2023-03-07T09:03:31.490Z,97323.00
2023-03-07T09:06:04.421Z,97323.00
2023-03-07T09:08:35.891Z,97337.00
2023-03-07T09:11:06.861Z,97314.00
2023-03-07T09:13:49.749Z,97308.00
2023-03-07T09:16:23.072Z,97314.00
2023-03-07T09:18:54.065Z,97313.00
2023-03-07T09:21:25.056Z,97312.00
2023-03-07T09:23:55.925Z,97313.00
2023-03-07T09:26:26.968Z,97308.00
2023-03-07T09:28:57.812Z,97301.00
2023-03-07T09:31:28.760Z,97291.00
2023-03-07T09:33:59.992Z,97305.00
2023-03-07T09:36:30.941Z,97313.00
2023-03-07T09:39:01.837Z,97305.00
2023-03-07T09:42:12.080Z,97309.00
2023-03-07T09:44:51.926Z,97316.00
2023-03-07T09:48:05.938Z,97305.00
2023-03-07T09:50:52.034Z,97312.00
2023-03-07T09:53:35.633Z,97314.00
2023-03-07T09:56:14.246Z,97314.00
2023-03-07T09:58:51.965Z,97302.00
2023-03-07T10:01:27.075Z,97303.00
2023-03-07T10:04:04.626Z,97307.00
2023-03-07T10:06:43.055Z,97298.00
2023-03-07T10:09:22.287Z,97299.00
2023-03-07T10:12:10.850Z,97302.00
2023-03-07T10:15:14.414Z,97292.00
2023-03-07T10:18:03.755Z,97297.00
2023-03-07T10:20:43.400Z,97301.00
2023-03-07T10:23:23.044Z,97293.00
2023-03-07T10:26:10.592Z,97289.00
2023-03-07T10:28:44.306Z,97293.00
2023-03-07T10:31:27.982Z,97312.00
2023-03-07T10:33:59.107Z,97290.00
2023-03-07T10:36:44.765Z,97279.00
2023-03-07T10:39:33.172Z,97278.00
2023-03-07T10:42:04.116Z,97275.00
2023-03-07T10:44:35.032Z,97293.00
2023-03-07T10:47:06.377Z,97274.00
2023-03-07T10:49:44.360Z,97271.00
2023-03-07T10:52:41.341Z,97271.00
2023-03-07T10:55:32.210Z,97267.00
2023-03-07T10:58:26.255Z,97259.00
2023-03-07T11:01:11.234Z,97262.00
2023-03-07T11:04:01.222Z,97267.00
2023-03-07T11:06:57.264Z,97287.00
2023-03-07T11:09:31.640Z,97263.00
2023-03-07T11:12:06.164Z,97277.00
2023-03-07T11:14:52.708Z,97272.00
2023-03-07T11:17:42.239Z,97257.00
2023-03-07T11:20:51.643Z,97256.00
2023-03-07T11:23:30.860Z,97247.00
2023-03-07T11:26:21.146Z,97263.00
2023-03-07T11:29:13.650Z,97246.00
2023-03-07T11:32:00.834Z,97246.00
2023-03-07T11:34:41.527Z,97236.00
2023-03-07T11:37:38.785Z,97227.00
2023-03-07T11:40:28.901Z,97237.00
2023-03-07T11:43:47.836Z,97258.00
2023-03-07T11:46:30.578Z,97238.00
2023-03-07T11:49:13.615Z,97239.00
2023-03-07T11:52:02.211Z,97261.00
2023-03-07T11:55:12.608Z,97249.00
2023-03-07T11:58:15.257Z,97238.00
2023-03-07T12:01:05.216Z,97246.00
2023-03-07T12:04:30.581Z,97247.00
2023-03-07T12:07:20.157Z,97229.00
2023-03-07T12:10:23.284Z,97230.00
2023-03-07T12:13:25.170Z,97228.00
2023-03-07T12:16:30.914Z,97216.00
2023-03-07T12:19:20.306Z,97218.00
2023-03-07T12:22:16.538Z,97220.00
2023-03-07T12:25:09.499Z,97216.00
2023-03-07T12:28:03.171Z,97209.00
2023-03-07T12:30:56.456Z,97203.00
2023-03-07T12:33:50.401Z,97192.00
2023-03-07T12:36:47.631Z,97183.00
2023-03-07T12:39:27.313Z,97178.00
2023-03-07T12:42:43.886Z,97173.00
2023-03-07T12:45:26.083Z,97156.00
2023-03-07T12:48:07.102Z,97152.00
2023-03-07T12:51:07.234Z,97145.00
2023-03-07T12:53:55.537Z,97137.00
2023-03-07T12:57:01.315Z,97132.00
2023-03-07T12:59:36.673Z,97136.00
2023-03-07T13:02:32.241Z,97123.00
2023-03-07T13:05:04.530Z,97131.00
2023-03-07T13:07:35.697Z,97125.00
2023-03-07T13:10:08.170Z,97119.00
2023-03-07T13:12:39.236Z,97122.00
2023-03-07T13:15:18.938Z,97114.00
2023-03-07T13:17:49.723Z,97132.00
2023-03-07T13:20:29.652Z,97109.00
2023-03-07T13:23:13.492Z,97114.00
2023-03-07T13:25:57.149Z,97100.00
2023-03-07T13:28:54.580Z,97102.00
2023-03-07T13:31:30.347Z,97107.00
2023-03-07T13:34:51.494Z,97111.00
2023-03-07T13:37:49.286Z,97104.00
2023-03-07T13:40:35.401Z,97102.00
2023-03-07T13:43:46.420Z,97108.00
2023-03-07T13:46:38.915Z,97107.00
2023-03-07T13:49:09.750Z,97101.00
2023-03-07T13:51:46.273Z,97099.00
2023-03-07T13:54:17.142Z,97098.00
2023-03-07T13:56:49.347Z,97104.00
2023-03-07T13:59:27.652Z,97103.00
2023-03-07T14:02:01.756Z,97105.00
2023-03-07T14:04:54.476Z,97114.00
2023-03-07T14:07:39.876Z,97104.00
2023-03-07T14:10:31.022Z,97115.00
2023-03-07T14:13:09.309Z,97112.00
2023-03-07T14:16:21.092Z,97138.00
2023-03-07T14:19:12.954Z,97120.00
2023-03-07T14:22:05.688Z,97119.00
2023-03-07T14:24:54.805Z,97141.00
2023-03-07T14:27:25.732Z,97125.00
2023-03-07T14:29:57.159Z,97123.00
2023-03-07T14:32:32.187Z,97134.00
2023-03-07T14:35:03.325Z,97125.00
2023-03-07T14:37:34.392Z,97129.00
2023-03-07T14:40:26.376Z,97134.00
2023-03-07T14:43:21.764Z,97121.00
2023-03-07T14:46:24.016Z,97142.00
2023-03-07T14:49:17.793Z,97129.00
2023-03-07T14:51:48.732Z,97126.00
2023-03-07T14:54:26.549Z,97107.00
2023-03-07T14:56:59.431Z,97109.00
2023-03-07T14:59:30.345Z,97115.00
2023-03-07T15:02:01.246Z,97117.00
2023-03-07T15:04:33.716Z,97106.00
2023-03-07T15:07:11.435Z,97105.00
2023-03-07T15:09:42.365Z,97106.00
2023-03-07T15:12:25.494Z,97114.00
2023-03-07T15:15:03.192Z,97088.00
2023-03-07T15:17:43.820Z,97100.00
2023-03-07T15:20:24.820Z,97090.00
2023-03-07T15:23:07.464Z,97098.00
2023-03-07T15:25:38.968Z,97102.00
2023-03-07T15:28:20.892Z,97105.00
2023-03-07T15:30:53.755Z,97089.00
2023-03-07T15:33:31.301Z,97087.00
2023-03-07T15:36:14.304Z,97086.00
2023-03-07T15:38:53.034Z,97095.00
2023-03-07T15:41:33.529Z,97108.00
2023-03-07T15:44:17.756Z,97100.00
2023-03-07T15:46:55.029Z,97094.00
2023-03-07T15:49:46.691Z,97107.00
2023-03-07T15:52:37.170Z,97096.00
2023-03-07T15:55:20.284Z,97105.00
2023-03-07T15:57:56.361Z,97096.00
2023-03-07T16:00:37.143Z,97092.00
2023-03-07T16:03:24.749Z,97099.00
2023-03-07T16:05:59.057Z,97089.00
2023-03-07T16:08:29.930Z,97084.00
2023-03-07T16:11:04.878Z,97095.00
2023-03-07T16:13:42.358Z,97100.00
2023-03-07T16:16:13.419Z,97106.00
2023-03-07T16:18:44.384Z,97108.00
2023-03-07T16:21:17.415Z,97109.00
2023-03-07T16:23:48.367Z,97105.00
2023-03-07T16:26:22.697Z,97103.00
2023-03-07T16:28:54.295Z,97128.00
2023-03-07T16:31:25.372Z,97121.00
2023-03-07T16:33:56.365Z,97123.00
2023-03-07T16:36:27.272Z,97131.00
2023-03-07T16:38:58.134Z,97124.00
2023-03-07T16:41:29.044Z,97139.00
2023-03-07T16:43:59.991Z,97134.00
2023-03-07T16:46:31.115Z,97121.00
2023-03-07T16:49:02.080Z,97137.00
2023-03-07T16:51:32.958Z,97132.00
2023-03-07T16:54:03.955Z,97133.00
2023-03-07T16:56:55.382Z,97138.00
2023-03-07T16:59:37.263Z,97144.00
2023-03-07T17:02:19.190Z,97147.00
2023-03-07T17:04:50.165Z,97153.00
2023-03-07T17:07:23.498Z,97158.00
2023-03-07T17:09:56.445Z,97150.00
2023-03-07T17:12:27.379Z,97154.00
2023-03-07T17:14:59.289Z,97150.00
2023-03-07T17:17:33.642Z,97159.00
2023-03-07T17:20:06.158Z,97172.00
2023-03-07T17:22:37.254Z,97155.00
2023-03-07T17:25:09.621Z,97157.00
2023-03-07T17:27:57.371Z,97167.00
2023-03-07T17:30:31.223Z,97169.00
2023-03-07T17:33:02.556Z,97163.00
2023-03-07T17:35:33.963Z,97172.00
2023-03-07T17:38:04.826Z,97184.00
2023-03-07T17:40:36.129Z,97182.00
2023-03-07T17:43:06.997Z,97182.00
2023-03-07T17:45:38.734Z,97183.00
2023-03-07T17:48:09.619Z,97181.00
2023-03-07T17:50:41.365Z,97180.00
2023-03-07T17:53:12.552Z,97191.00
2023-03-07T17:55:43.562Z,97190.00
2023-03-07T17:58:14.439Z,97196.00
2023-03-07T18:00:45.483Z,97198.00
2023-03-07T18:03:16.336Z,97210.00
2023-03-07T18:05:47.197Z,97212.00
2023-03-07T18:08:18.070Z,97209.00
2023-03-07T18:10:49.001Z,97209.00
2023-03-07T18:13:22.204Z,97212.00
2023-03-07T18:15:54.203Z,97212.00
2023-03-07T18:18:25.737Z,97221.00
2023-03-07T18:21:02.832Z,97227.00
2023-03-07T18:23:35.040Z,97220.00
2023-03-07T18:26:13.893Z,97221.00
2023-03-07T18:28:47.450Z,97219.00
2023-03-07T18:31:22.735Z,97220.00
2023-03-07T18:33:53.985Z,97214.00
2023-03-07T18:36:25.537Z,97205.00
2023-03-07T18:38:56.460Z,97207.00
2023-03-07T18:41:28.866Z,97217.00
2023-03-07T18:43:59.892Z,97218.00
2023-03-07T18:46:32.430Z,97216.00
2023-03-07T18:49:03.975Z,97220.00
2023-03-07T18:51:34.856Z,97217.00
2023-03-07T18:54:05.927Z,97222.00
2023-03-07T18:56:36.950Z,97233.00
2023-03-07T18:59:07.826Z,97243.00
2023-03-07T19:01:39.703Z,97237.00
2023-03-07T19:04:11.726Z,97232.00
2023-03-07T19:06:48.263Z,97245.00
2023-03-07T19:09:21.061Z,97247.00
2023-03-07T19:11:52.539Z,97247.00
2023-03-07T19:14:23.403Z,97249.00
2023-03-07T19:16:54.977Z,97244.00
2023-03-07T19:19:25.841Z,97239.00
2023-03-07T19:21:56.822Z,97247.00
2023-03-07T19:24:27.792Z,97252.00
2023-03-07T19:26:58.797Z,97249.00
2023-03-07T19:29:29.730Z,97253.00
2023-03-07T19:32:00.820Z,97249.00
2023-03-07T19:34:31.790Z,97246.00
2023-03-07T19:37:02.767Z,97258.00
2023-03-07T19:39:34.209Z,97259.00
2023-03-07T19:42:05.215Z,97266.00
2023-03-07T19:44:36.086Z,97264.00
2023-03-07T19:47:07.054Z,97261.00
2023-03-07T19:49:37.932Z,97257.00
2023-03-07T19:52:08.867Z,97271.00
2023-03-07T19:54:40.116Z,97265.00
2023-03-07T19:57:14.953Z,97273.00
2023-03-07T19:59:46.106Z,97272.00
2023-03-07T20:02:17.005Z,97283.00
2023-03-07T20:04:47.960Z,97266.00
2023-03-07T20:07:18.871Z,97277.00
2023-03-07T20:09:52.994Z,97279.00
2023-03-07T20:12:23.874Z,97276.00
2023-03-07T20:14:54.729Z,97277.00
2023-03-07T20:17:25.736Z,97284.00
2023-03-07T20:19:58.112Z,97283.00
2023-03-07T20:22:28.995Z,97283.00
2023-03-07T20:24:59.990Z,97274.00
2023-03-07T20:27:30.963Z,97265.00
2023-03-07T20:30:01.990Z,97260.00
2023-03-07T20:32:32.921Z,97261.00
2023-03-07T20:35:04.773Z,97266.00
2023-03-07T20:37:36.069Z,97269.00
2023-03-07T20:40:08.142Z,97267.00
2023-03-07T20:42:39.310Z,97277.00
2023-03-07T20:45:10.828Z,97295.00
2023-03-07T20:47:41.726Z,97287.00
2023-03-07T20:50:12.618Z,97280.00
2023-03-07T20:52:43.577Z,97294.00
2023-03-07T20:55:14.627Z,97311.00
2023-03-07T20:57:46.003Z,97308.00
2023-03-07T21:00:17.281Z,97295.00
2023-03-07T21:02:48.356Z,97311.00
2023-03-07T21:05:19.267Z,97313.00
2023-03-07T21:07:50.103Z,97314.00
2023-03-07T21:10:21.298Z,97305.00
2023-03-07T21:12:53.467Z,97307.00
2023-03-07T21:15:24.340Z,97307.00
2023-03-07T21:17:55.253Z,97320.00
2023-03-07T21:20:26.151Z,97301.00
2023-03-07T21:22:57.015Z,97300.00
2023-03-07T21:25:27.919Z,97312.00
2023-03-07T21:27:58.762Z,97315.00
2023-03-07T21:30:29.634Z,97315.00
2023-03-07T21:33:00.561Z,97319.00
2023-03-07T21:35:36.387Z,97315.00
2023-03-07T21:38:07.668Z,97323.00
2023-03-07T21:40:41.228Z,97337.00
2023-03-07T21:43:13.505Z,97340.00
2023-03-07T21:45:44.531Z,97341.00
2023-03-07T21:48:17.044Z,97337.00
2023-03-07T21:50:51.749Z,97348.00
2023-03-07T21:53:22.756Z,97354.00
2023-03-07T21:56:06.898Z,97351.00
2023-03-07T21:58:39.903Z,97360.00
2023-03-07T22:01:21.010Z,97357.00
2023-03-07T22:03:57.110Z,97367.00
2023-03-07T22:06:28.641Z,97369.00
2023-03-07T22:09:00.309Z,97367.00
2023-03-07T22:11:31.188Z,97371.00
2023-03-07T22:14:03.386Z,97372.00
2023-03-07T22:16:34.315Z,97367.00
2023-03-07T22:19:05.581Z,97374.00
2023-03-07T22:21:36.554Z,97377.00
2023-03-07T22:24:07.666Z,97372.00
2023-03-07T22:26:38.685Z,97376.00
2023-03-07T22:29:09.571Z,97377.00
2023-03-07T22:31:40.450Z,97377.00
2023-03-07T22:34:11.317Z,97378.00
2023-03-07T22:36:42.273Z,97377.00
2023-03-07T22:39:13.368Z,97382.00
2023-03-07T22:41:44.327Z,97379.00
2023-03-07T22:44:17.336Z,97379.00
2023-03-07T22:46:50.485Z,97395.00
2023-03-07T22:49:21.328Z,97384.00
2023-03-07T22:51:52.440Z,97378.00
2023-03-07T22:54:23.643Z,97383.00
2023-03-07T22:56:54.573Z,97365.00
2023-03-07T22:59:25.524Z,97381.00
2023-03-07T23:01:56.406Z,97370.00
2023-03-07T23:04:29.057Z,97374.00
2023-03-07T23:06:59.974Z,97360.00
2023-03-07T23:09:30.884Z,97370.00
2023-03-07T23:12:01.868Z,97370.00
2023-03-07T23:14:32.815Z,97381.00
2023-03-07T23:17:04.037Z,97368.00
2023-03-07T23:19:34.893Z,97376.00
2023-03-07T23:22:06.908Z,97379.00
2023-03-07T23:24:37.810Z,97375.00
2023-03-07T23:27:08.823Z,97387.00
2023-03-07T23:29:39.718Z,97389.00
2023-03-07T23:32:10.662Z,97375.00
2023-03-07T23:34:41.517Z,97384.00
2023-03-07T23:37:12.380Z,97385.00
2023-03-07T23:39:43.277Z,97389.00
2023-03-07T23:42:14.205Z,97375.00
2023-03-07T23:44:45.535Z,97385.00
2023-03-07T23:47:17.036Z,97385.00
2023-03-07T23:49:47.881Z,97392.00
2023-03-07T23:52:19.045Z,97393.00
2023-03-07T23:54:49.958Z,97396.00
2023-03-07T23:57:20.845Z,97393.00
2023-03-07T23:59:52.126Z,97388.00
